Etusivu
METAR-TAF:

METAR-TAF

Lentoasemat :

Eveleth-Virginia Municipal Airport

Eveleth, Minnesota, Yhdysvallat

Leveyspiiri: 47-24N, Pituuspiiri: 092-30W, korkeus merenpinnasta: 421 m

Tämänhetkinen sää

Tämä raportti tehtiin 31 minuuttia sitten, kello 13.35 UTC
Tuuli 6 kn lännestä
Lämpötila 9°C
Kosteus 93%
Ilmanpaine 1007 hPa
Näkyvyys: 16.1 km
Pilvistä 1000 ft:n korkeudessa

METAR: KEVM 291335Z AUTO 26006KT 10SM OVC010 09/08 A2973 RMK AO2 T00900077 PWINO

Aika: 09:06 (14:06 UTC)


TAF: puuttuu

Säähavainnot ja -ennusteet yli 4000 lentoasemalta (METAR- ja TAF-raportit).

Käytössä olevat sääasemat on merkitty karttaan keltaisilla ja punaisilla pisteillä.

Aseta hiiri pisteen päälle nähdäksesi sääaseman nimen.

Klikkaa sitten nähdäksesi säähavainnot ja -ennusteet.

Kartan vaihtaminen: klikkaa mustalla rastilla varustettuja vihreitä pisteitä, niin voit zoomata sisään; viivalla varustettua vihreää pistettä, niin voit zoomata ulos tai vihreitä nuolia, niin pääset viereisille kartoille.


METAR-TAF: